sensor_id;sensor_type;location;lat;lon;timestamp;P1;durP1;ratioP1;P2;durP2;ratioP2
32876;SDS011;19226;51.600;8.034;2023-06-14T00:02:38;6.03;;;3.97;;
32876;SDS011;19226;51.600;8.034;2023-06-14T00:05:23;16.70;;;3.85;;
32876;SDS011;19226;51.600;8.034;2023-06-14T00:08:11;11.15;;;4.28;;
32876;SDS011;19226;51.600;8.034;2023-06-14T00:10:56;6.60;;;3.90;;
32876;SDS011;19226;51.600;8.034;2023-06-14T00:13:40;9.00;;;4.32;;
32876;SDS011;19226;51.600;8.034;2023-06-14T00:16:26;8.25;;;4.07;;
32876;SDS011;19226;51.600;8.034;2023-06-14T00:19:11;4.97;;;4.25;;
32876;SDS011;19226;51.600;8.034;2023-06-14T00:21:56;6.97;;;3.85;;
32876;SDS011;19226;51.600;8.034;2023-06-14T00:24:41;5.03;;;4.03;;
32876;SDS011;19226;51.600;8.034;2023-06-14T00:27:26;8.65;;;3.45;;
32876;SDS011;19226;51.600;8.034;2023-06-14T00:30:10;6.45;;;4.35;;
32876;SDS011;19226;51.600;8.034;2023-06-14T00:32:55;10.73;;;3.50;;
32876;SDS011;19226;51.600;8.034;2023-06-14T00:35:42;8.57;;;3.78;;
32876;SDS011;19226;51.600;8.034;2023-06-14T00:38:27;6.95;;;3.75;;
32876;SDS011;19226;51.600;8.034;2023-06-14T00:41:11;10.20;;;3.60;;
32876;SDS011;19226;51.600;8.034;2023-06-14T00:43:56;11.45;;;3.22;;
32876;SDS011;19226;51.600;8.034;2023-06-14T00:46:40;7.78;;;3.50;;
32876;SDS011;19226;51.600;8.034;2023-06-14T00:49:28;6.10;;;3.58;;
32876;SDS011;19226;51.600;8.034;2023-06-14T00:52:15;7.93;;;3.38;;
32876;SDS011;19226;51.600;8.034;2023-06-14T00:55:00;5.18;;;3.15;;
32876;SDS011;19226;51.600;8.034;2023-06-14T00:57:47;3.05;;;2.80;;
32876;SDS011;19226;51.600;8.034;2023-06-14T01:00:33;5.93;;;3.50;;
32876;SDS011;19226;51.600;8.034;2023-06-14T01:03:18;4.72;;;2.97;;
32876;SDS011;19226;51.600;8.034;2023-06-14T01:06:10;3.65;;;3.35;;
32876;SDS011;19226;51.600;8.034;2023-06-14T01:12:13;5.00;;;2.90;;
32876;SDS011;19226;51.600;8.034;2023-06-14T01:15:10;4.95;;;3.28;;
32876;SDS011;19226;51.600;8.034;2023-06-14T01:17:56;5.32;;;3.10;;
32876;SDS011;19226;51.600;8.034;2023-06-14T01:20:47;9.70;;;3.00;;
32876;SDS011;19226;51.600;8.034;2023-06-14T01:26:21;4.95;;;2.70;;
32876;SDS011;19226;51.600;8.034;2023-06-14T01:29:06;6.53;;;2.63;;
32876;SDS011;19226;51.600;8.034;2023-06-14T01:31:50;7.13;;;3.08;;
32876;SDS011;19226;51.600;8.034;2023-06-14T01:34:35;9.48;;;2.60;;
32876;SDS011;19226;51.600;8.034;2023-06-14T01:37:19;5.63;;;2.38;;
32876;SDS011;19226;51.600;8.034;2023-06-14T01:40:05;4.03;;;2.33;;
32876;SDS011;19226;51.600;8.034;2023-06-14T01:42:52;5.03;;;2.70;;
32876;SDS011;19226;51.600;8.034;2023-06-14T01:45:37;11.27;;;2.47;;
32876;SDS011;19226;51.600;8.034;2023-06-14T01:48:22;4.93;;;2.30;;
32876;SDS011;19226;51.600;8.034;2023-06-14T01:51:07;4.60;;;2.78;;
32876;SDS011;19226;51.600;8.034;2023-06-14T01:53:52;3.15;;;2.50;;
32876;SDS011;19226;51.600;8.034;2023-06-14T01:56:36;9.90;;;2.67;;
32876;SDS011;19226;51.600;8.034;2023-06-14T01:59:21;4.68;;;2.90;;
32876;SDS011;19226;51.600;8.034;2023-06-14T02:02:06;6.30;;;2.10;;
32876;SDS011;19226;51.600;8.034;2023-06-14T02:04:50;6.22;;;2.85;;
32876;SDS011;19226;51.600;8.034;2023-06-14T02:07:36;2.70;;;2.35;;
32876;SDS011;19226;51.600;8.034;2023-06-14T02:10:20;9.27;;;2.60;;
32876;SDS011;19226;51.600;8.034;2023-06-14T02:13:05;3.88;;;2.45;;
32876;SDS011;19226;51.600;8.034;2023-06-14T02:15:49;4.82;;;2.67;;
32876;SDS011;19226;51.600;8.034;2023-06-14T02:18:39;2.78;;;2.58;;
32876;SDS011;19226;51.600;8.034;2023-06-14T02:21:23;6.75;;;2.83;;
32876;SDS011;19226;51.600;8.034;2023-06-14T02:24:08;4.55;;;2.83;;
32876;SDS011;19226;51.600;8.034;2023-06-14T02:26:53;4.00;;;2.50;;
32876;SDS011;19226;51.600;8.034;2023-06-14T02:29:38;9.77;;;2.72;;
32876;SDS011;19226;51.600;8.034;2023-06-14T02:32:23;12.23;;;2.65;;
32876;SDS011;19226;51.600;8.034;2023-06-14T02:35:08;4.88;;;2.55;;
32876;SDS011;19226;51.600;8.034;2023-06-14T02:37:53;9.25;;;3.40;;
32876;SDS011;19226;51.600;8.034;2023-06-14T02:40:40;5.00;;;2.95;;
32876;SDS011;19226;51.600;8.034;2023-06-14T02:43:26;4.50;;;2.60;;
32876;SDS011;19226;51.600;8.034;2023-06-14T02:46:12;4.53;;;2.75;;
32876;SDS011;19226;51.600;8.034;2023-06-14T02:48:57;3.58;;;2.60;;
32876;SDS011;19226;51.600;8.034;2023-06-14T02:51:42;3.17;;;2.58;;
32876;SDS011;19226;51.600;8.034;2023-06-14T02:54:26;3.45;;;2.90;;
32876;SDS011;19226;51.600;8.034;2023-06-14T02:57:11;4.00;;;2.75;;
32876;SDS011;19226;51.600;8.034;2023-06-14T02:59:56;7.00;;;2.78;;
32876;SDS011;19226;51.600;8.034;2023-06-14T03:02:40;4.63;;;2.20;;
32876;SDS011;19226;51.600;8.034;2023-06-14T03:05:27;4.00;;;2.85;;
32876;SDS011;19226;51.600;8.034;2023-06-14T03:08:12;5.15;;;2.97;;
32876;SDS011;19226;51.600;8.034;2023-06-14T03:11:01;11.73;;;2.40;;
32876;SDS011;19226;51.600;8.034;2023-06-14T03:13:47;3.45;;;2.40;;
32876;SDS011;19226;51.600;8.034;2023-06-14T03:16:31;7.05;;;2.83;;
32876;SDS011;19226;51.600;8.034;2023-06-14T03:19:17;4.05;;;2.70;;
32876;SDS011;19226;51.600;8.034;2023-06-14T03:22:02;10.50;;;2.47;;
32876;SDS011;19226;51.600;8.034;2023-06-14T03:24:49;4.28;;;2.50;;
32876;SDS011;19226;51.600;8.034;2023-06-14T03:27:35;3.95;;;2.35;;
32876;SDS011;19226;51.600;8.034;2023-06-14T03:30:20;5.45;;;2.42;;
32876;SDS011;19226;51.600;8.034;2023-06-14T03:33:07;4.68;;;2.85;;
32876;SDS011;19226;51.600;8.034;2023-06-14T03:35:56;5.25;;;2.42;;
32876;SDS011;19226;51.600;8.034;2023-06-14T03:38:41;14.75;;;2.80;;
32876;SDS011;19226;51.600;8.034;2023-06-14T03:41:26;2.78;;;2.47;;
32876;SDS011;19226;51.600;8.034;2023-06-14T03:44:13;9.57;;;2.67;;
32876;SDS011;19226;51.600;8.034;2023-06-14T03:47:00;3.72;;;2.63;;
32876;SDS011;19226;51.600;8.034;2023-06-14T03:49:46;9.88;;;2.10;;
32876;SDS011;19226;51.600;8.034;2023-06-14T03:52:31;5.90;;;2.78;;
32876;SDS011;19226;51.600;8.034;2023-06-14T03:55:16;8.90;;;2.70;;
32876;SDS011;19226;51.600;8.034;2023-06-14T03:58:01;5.65;;;2.75;;
32876;SDS011;19226;51.600;8.034;2023-06-14T04:00:46;4.70;;;2.42;;
32876;SDS011;19226;51.600;8.034;2023-06-14T04:03:31;6.10;;;2.25;;
32876;SDS011;19226;51.600;8.034;2023-06-14T04:06:18;5.15;;;2.40;;
32876;SDS011;19226;51.600;8.034;2023-06-14T04:09:03;5.35;;;2.47;;
32876;SDS011;19226;51.600;8.034;2023-06-14T04:11:48;4.53;;;2.55;;
32876;SDS011;19226;51.600;8.034;2023-06-14T04:14:33;3.28;;;2.55;;
32876;SDS011;19226;51.600;8.034;2023-06-14T04:17:18;3.25;;;2.50;;
32876;SDS011;19226;51.600;8.034;2023-06-14T04:20:03;9.15;;;2.60;;
32876;SDS011;19226;51.600;8.034;2023-06-14T04:22:49;6.28;;;2.45;;
32876;SDS011;19226;51.600;8.034;2023-06-14T04:25:34;3.75;;;2.60;;
32876;SDS011;19226;51.600;8.034;2023-06-14T04:28:18;8.90;;;2.55;;
32876;SDS011;19226;51.600;8.034;2023-06-14T04:31:03;3.92;;;2.25;;
32876;SDS011;19226;51.600;8.034;2023-06-14T04:33:50;11.68;;;2.83;;
32876;SDS011;19226;51.600;8.034;2023-06-14T04:36:39;7.20;;;2.72;;
32876;SDS011;19226;51.600;8.034;2023-06-14T04:39:33;7.30;;;2.65;;
32876;SDS011;19226;51.600;8.034;2023-06-14T04:42:19;9.45;;;2.97;;
32876;SDS011;19226;51.600;8.034;2023-06-14T04:45:05;6.50;;;3.25;;
32876;SDS011;19226;51.600;8.034;2023-06-14T04:47:51;9.38;;;2.75;;
32876;SDS011;19226;51.600;8.034;2023-06-14T04:50:41;6.40;;;2.30;;
32876;SDS011;19226;51.600;8.034;2023-06-14T04:53:27;6.38;;;2.65;;
32876;SDS011;19226;51.600;8.034;2023-06-14T04:56:13;5.40;;;3.08;;
32876;SDS011;19226;51.600;8.034;2023-06-14T04:58:59;3.25;;;2.58;;
32876;SDS011;19226;51.600;8.034;2023-06-14T05:01:43;11.70;;;2.80;;
32876;SDS011;19226;51.600;8.034;2023-06-14T05:04:32;3.30;;;2.42;;
32876;SDS011;19226;51.600;8.034;2023-06-14T05:07:16;12.02;;;3.00;;
32876;SDS011;19226;51.600;8.034;2023-06-14T05:10:01;7.38;;;2.70;;
32876;SDS011;19226;51.600;8.034;2023-06-14T05:12:46;5.35;;;2.75;;
32876;SDS011;19226;51.600;8.034;2023-06-14T05:15:32;6.35;;;2.42;;
32876;SDS011;19226;51.600;8.034;2023-06-14T05:18:18;6.43;;;2.58;;
32876;SDS011;19226;51.600;8.034;2023-06-14T05:21:02;2.67;;;2.30;;
32876;SDS011;19226;51.600;8.034;2023-06-14T05:23:49;5.13;;;2.35;;
32876;SDS011;19226;51.600;8.034;2023-06-14T05:26:34;5.22;;;2.55;;
32876;SDS011;19226;51.600;8.034;2023-06-14T05:29:18;4.40;;;2.90;;
32876;SDS011;19226;51.600;8.034;2023-06-14T05:32:03;5.22;;;2.40;;
32876;SDS011;19226;51.600;8.034;2023-06-14T05:34:48;4.45;;;2.40;;
32876;SDS011;19226;51.600;8.034;2023-06-14T05:37:32;8.35;;;2.80;;
32876;SDS011;19226;51.600;8.034;2023-06-14T05:40:17;5.63;;;2.70;;
32876;SDS011;19226;51.600;8.034;2023-06-14T05:43:01;8.70;;;2.42;;
32876;SDS011;19226;51.600;8.034;2023-06-14T05:45:46;4.22;;;2.00;;
32876;SDS011;19226;51.600;8.034;2023-06-14T05:48:31;8.15;;;2.67;;
32876;SDS011;19226;51.600;8.034;2023-06-14T05:51:15;8.30;;;2.13;;
32876;SDS011;19226;51.600;8.034;2023-06-14T05:54:02;13.25;;;2.83;;
32876;SDS011;19226;51.600;8.034;2023-06-14T05:56:46;5.97;;;2.50;;
32876;SDS011;19226;51.600;8.034;2023-06-14T05:59:31;5.80;;;2.42;;
32876;SDS011;19226;51.600;8.034;2023-06-14T06:02:16;3.25;;;2.20;;
32876;SDS011;19226;51.600;8.034;2023-06-14T06:05:00;5.47;;;2.28;;
32876;SDS011;19226;51.600;8.034;2023-06-14T06:07:45;7.55;;;2.63;;
32876;SDS011;19226;51.600;8.034;2023-06-14T06:10:30;4.25;;;2.10;;
32876;SDS011;19226;51.600;8.034;2023-06-14T06:13:14;8.60;;;2.50;;
32876;SDS011;19226;51.600;8.034;2023-06-14T06:15:59;6.45;;;2.10;;
32876;SDS011;19226;51.600;8.034;2023-06-14T06:18:44;6.10;;;2.72;;
32876;SDS011;19226;51.600;8.034;2023-06-14T06:21:29;3.88;;;2.20;;
32876;SDS011;19226;51.600;8.034;2023-06-14T06:24:13;6.70;;;2.20;;
32876;SDS011;19226;51.600;8.034;2023-06-14T06:26:58;8.18;;;2.10;;
32876;SDS011;19226;51.600;8.034;2023-06-14T06:29:42;5.20;;;2.33;;
32876;SDS011;19226;51.600;8.034;2023-06-14T06:32:30;4.95;;;2.15;;
32876;SDS011;19226;51.600;8.034;2023-06-14T06:35:14;9.23;;;1.80;;
32876;SDS011;19226;51.600;8.034;2023-06-14T06:37:59;3.75;;;2.20;;
32876;SDS011;19226;51.600;8.034;2023-06-14T06:40:47;4.10;;;1.90;;
32876;SDS011;19226;51.600;8.034;2023-06-14T06:43:32;19.13;;;2.30;;
32876;SDS011;19226;51.600;8.034;2023-06-14T06:46:16;3.03;;;2.00;;
32876;SDS011;19226;51.600;8.034;2023-06-14T06:49:03;6.78;;;1.90;;
32876;SDS011;19226;51.600;8.034;2023-06-14T06:52:00;5.63;;;1.77;;
32876;SDS011;19226;51.600;8.034;2023-06-14T06:54:45;2.72;;;2.13;;
32876;SDS011;19226;51.600;8.034;2023-06-14T06:57:30;1.50;;;1.40;;
32876;SDS011;19226;51.600;8.034;2023-06-14T07:00:15;3.90;;;1.33;;
32876;SDS011;19226;51.600;8.034;2023-06-14T07:03:01;2.28;;;1.02;;
32876;SDS011;19226;51.600;8.034;2023-06-14T07:05:47;1.45;;;0.93;;
32876;SDS011;19226;51.600;8.034;2023-06-14T07:08:32;5.70;;;1.10;;
32876;SDS011;19226;51.600;8.034;2023-06-14T07:11:16;3.80;;;0.93;;
32876;SDS011;19226;51.600;8.034;2023-06-14T07:14:01;3.65;;;1.42;;
32876;SDS011;19226;51.600;8.034;2023-06-14T07:16:45;1.98;;;1.15;;
32876;SDS011;19226;51.600;8.034;2023-06-14T07:19:30;2.50;;;1.00;;
32876;SDS011;19226;51.600;8.034;2023-06-14T07:22:15;6.88;;;1.13;;
32876;SDS011;19226;51.600;8.034;2023-06-14T07:25:00;3.42;;;1.10;;
32876;SDS011;19226;51.600;8.034;2023-06-14T07:27:44;1.10;;;1.02;;
32876;SDS011;19226;51.600;8.034;2023-06-14T07:30:29;4.30;;;1.52;;
32876;SDS011;19226;51.600;8.034;2023-06-14T07:33:13;6.18;;;0.90;;
32876;SDS011;19226;51.600;8.034;2023-06-14T07:35:58;0.52;;;0.52;;
32876;SDS011;19226;51.600;8.034;2023-06-14T07:38:42;2.58;;;0.85;;
32876;SDS011;19226;51.600;8.034;2023-06-14T07:41:27;1.65;;;0.90;;
32876;SDS011;19226;51.600;8.034;2023-06-14T07:44:12;1.73;;;0.77;;
32876;SDS011;19226;51.600;8.034;2023-06-14T07:46:57;4.60;;;0.98;;
32876;SDS011;19226;51.600;8.034;2023-06-14T07:49:43;1.33;;;0.85;;
32876;SDS011;19226;51.600;8.034;2023-06-14T07:52:28;13.50;;;1.10;;
32876;SDS011;19226;51.600;8.034;2023-06-14T07:55:12;4.07;;;0.90;;
32876;SDS011;19226;51.600;8.034;2023-06-14T07:57:59;1.08;;;0.80;;
32876;SDS011;19226;51.600;8.034;2023-06-14T08:00:43;13.07;;;1.23;;
32876;SDS011;19226;51.600;8.034;2023-06-14T08:03:28;20.75;;;2.15;;
32876;SDS011;19226;51.600;8.034;2023-06-14T08:06:13;33.63;;;2.83;;
32876;SDS011;19226;51.600;8.034;2023-06-14T08:08:59;1.00;;;0.90;;
32876;SDS011;19226;51.600;8.034;2023-06-14T08:11:43;1.92;;;0.98;;
32876;SDS011;19226;51.600;8.034;2023-06-14T08:14:28;2.30;;;1.10;;
32876;SDS011;19226;51.600;8.034;2023-06-14T08:17:12;2.25;;;0.80;;
32876;SDS011;19226;51.600;8.034;2023-06-14T08:19:57;3.28;;;1.00;;
32876;SDS011;19226;51.600;8.034;2023-06-14T08:22:42;6.75;;;1.10;;
32876;SDS011;19226;51.600;8.034;2023-06-14T08:25:27;10.75;;;1.45;;
32876;SDS011;19226;51.600;8.034;2023-06-14T08:28:11;14.88;;;2.85;;
32876;SDS011;19226;51.600;8.034;2023-06-14T08:30:56;11.05;;;1.77;;
32876;SDS011;19226;51.600;8.034;2023-06-14T08:33:40;6.75;;;1.40;;
32876;SDS011;19226;51.600;8.034;2023-06-14T08:36:26;11.30;;;1.48;;
32876;SDS011;19226;51.600;8.034;2023-06-14T08:39:11;2.78;;;0.88;;
32876;SDS011;19226;51.600;8.034;2023-06-14T08:41:56;17.40;;;1.95;;
32876;SDS011;19226;51.600;8.034;2023-06-14T08:44:41;12.55;;;1.58;;
32876;SDS011;19226;51.600;8.034;2023-06-14T08:47:26;15.18;;;2.10;;
32876;SDS011;19226;51.600;8.034;2023-06-14T08:50:12;10.55;;;1.70;;
32876;SDS011;19226;51.600;8.034;2023-06-14T08:53:00;24.63;;;2.70;;
32876;SDS011;19226;51.600;8.034;2023-06-14T08:55:46;8.93;;;1.42;;
32876;SDS011;19226;51.600;8.034;2023-06-14T08:58:31;41.33;;;4.82;;
32876;SDS011;19226;51.600;8.034;2023-06-14T09:01:17;10.60;;;1.42;;
32876;SDS011;19226;51.600;8.034;2023-06-14T09:04:03;6.18;;;1.10;;
32876;SDS011;19226;51.600;8.034;2023-06-14T09:06:49;14.30;;;2.72;;
32876;SDS011;19226;51.600;8.034;2023-06-14T09:09:39;16.95;;;1.90;;
32876;SDS011;19226;51.600;8.034;2023-06-14T09:12:25;2.33;;;0.90;;
32876;SDS011;19226;51.600;8.034;2023-06-14T09:15:10;4.68;;;0.80;;
32876;SDS011;19226;51.600;8.034;2023-06-14T09:17:54;2.50;;;0.70;;
32876;SDS011;19226;51.600;8.034;2023-06-14T09:20:39;6.10;;;0.90;;
32876;SDS011;19226;51.600;8.034;2023-06-14T09:23:24;4.35;;;1.00;;
32876;SDS011;19226;51.600;8.034;2023-06-14T09:26:10;2.00;;;0.90;;
32876;SDS011;19226;51.600;8.034;2023-06-14T09:28:56;3.03;;;0.82;;
32876;SDS011;19226;51.600;8.034;2023-06-14T09:31:41;3.67;;;0.90;;
32876;SDS011;19226;51.600;8.034;2023-06-14T09:34:26;0.98;;;0.88;;
32876;SDS011;19226;51.600;8.034;2023-06-14T09:37:10;1.60;;;1.48;;
32876;SDS011;19226;51.600;8.034;2023-06-14T09:39:55;2.88;;;1.58;;
32876;SDS011;19226;51.600;8.034;2023-06-14T09:42:40;4.97;;;1.23;;
32876;SDS011;19226;51.600;8.034;2023-06-14T09:45:25;2.30;;;1.42;;
32876;SDS011;19226;51.600;8.034;2023-06-14T09:48:12;1.85;;;1.40;;
32876;SDS011;19226;51.600;8.034;2023-06-14T09:51:01;4.75;;;1.33;;
32876;SDS011;19226;51.600;8.034;2023-06-14T09:53:46;6.55;;;1.88;;
32876;SDS011;19226;51.600;8.034;2023-06-14T09:56:41;1.20;;;1.10;;
32876;SDS011;19226;51.600;8.034;2023-06-14T09:59:28;2.80;;;1.00;;
32876;SDS011;19226;51.600;8.034;2023-06-14T10:02:29;1.90;;;1.30;;
32876;SDS011;19226;51.600;8.034;2023-06-14T10:05:22;2.85;;;1.45;;
32876;SDS011;19226;51.600;8.034;2023-06-14T10:08:08;2.33;;;1.25;;
32876;SDS011;19226;51.600;8.034;2023-06-14T10:10:57;11.60;;;1.20;;
32876;SDS011;19226;51.600;8.034;2023-06-14T10:13:42;2.67;;;1.27;;
32876;SDS011;19226;51.600;8.034;2023-06-14T10:16:34;2.58;;;1.30;;
32876;SDS011;19226;51.600;8.034;2023-06-14T10:19:29;3.47;;;1.00;;
32876;SDS011;19226;51.600;8.034;2023-06-14T10:22:22;2.13;;;1.08;;
32876;SDS011;19226;51.600;8.034;2023-06-14T10:25:13;5.93;;;1.27;;
32876;SDS011;19226;51.600;8.034;2023-06-14T10:31:04;1.60;;;1.20;;
32876;SDS011;19226;51.600;8.034;2023-06-14T10:36:38;3.50;;;1.42;;
32876;SDS011;19226;51.600;8.034;2023-06-14T10:39:25;2.25;;;1.10;;
32876;SDS011;19226;51.600;8.034;2023-06-14T10:42:10;4.28;;;1.45;;
32876;SDS011;19226;51.600;8.034;2023-06-14T10:44:55;1.73;;;1.10;;
32876;SDS011;19226;51.600;8.034;2023-06-14T10:47:41;1.73;;;1.10;;
32876;SDS011;19226;51.600;8.034;2023-06-14T10:50:29;3.15;;;1.13;;
32876;SDS011;19226;51.600;8.034;2023-06-14T10:53:23;4.70;;;1.35;;
32876;SDS011;19226;51.600;8.034;2023-06-14T10:56:19;1.20;;;1.10;;
32876;SDS011;19226;51.600;8.034;2023-06-14T10:59:14;2.17;;;1.25;;
32876;SDS011;19226;51.600;8.034;2023-06-14T11:05:06;5.70;;;1.02;;
32876;SDS011;19226;51.600;8.034;2023-06-14T11:11:02;0.98;;;0.98;;
32876;SDS011;19226;51.600;8.034;2023-06-14T11:13:50;4.72;;;1.23;;
32876;SDS011;19226;51.600;8.034;2023-06-14T11:16:35;1.38;;;0.93;;
32876;SDS011;19226;51.600;8.034;2023-06-14T11:19:21;4.22;;;1.38;;
32876;SDS011;19226;51.600;8.034;2023-06-14T11:22:06;4.65;;;1.40;;
32876;SDS011;19226;51.600;8.034;2023-06-14T11:24:50;3.40;;;1.50;;
32876;SDS011;19226;51.600;8.034;2023-06-14T11:27:35;2.63;;;1.10;;
32876;SDS011;19226;51.600;8.034;2023-06-14T11:30:20;2.28;;;1.30;;
32876;SDS011;19226;51.600;8.034;2023-06-14T11:33:04;1.30;;;1.20;;
32876;SDS011;19226;51.600;8.034;2023-06-14T11:35:53;3.13;;;1.30;;
32876;SDS011;19226;51.600;8.034;2023-06-14T11:38:37;2.30;;;1.27;;
32876;SDS011;19226;51.600;8.034;2023-06-14T11:41:24;3.58;;;1.25;;
32876;SDS011;19226;51.600;8.034;2023-06-14T11:44:09;3.58;;;1.42;;
32876;SDS011;19226;51.600;8.034;2023-06-14T11:46:53;4.15;;;1.52;;
32876;SDS011;19226;51.600;8.034;2023-06-14T11:49:40;1.95;;;1.77;;
32876;SDS011;19226;51.600;8.034;2023-06-14T11:52:25;3.05;;;1.33;;
32876;SDS011;19226;51.600;8.034;2023-06-14T11:55:10;6.13;;;1.48;;
32876;SDS011;19226;51.600;8.034;2023-06-14T11:57:54;7.55;;;1.30;;
32876;SDS011;19226;51.600;8.034;2023-06-14T12:00:39;4.40;;;1.73;;
32876;SDS011;19226;51.600;8.034;2023-06-14T12:03:24;5.25;;;1.30;;
32876;SDS011;19226;51.600;8.034;2023-06-14T12:06:09;4.10;;;1.42;;
32876;SDS011;19226;51.600;8.034;2023-06-14T12:08:55;1.30;;;1.20;;
32876;SDS011;19226;51.600;8.034;2023-06-14T12:11:40;1.50;;;1.40;;
32876;SDS011;19226;51.600;8.034;2023-06-14T12:14:28;1.20;;;1.05;;
32876;SDS011;19226;51.600;8.034;2023-06-14T12:20:13;9.93;;;1.55;;
32876;SDS011;19226;51.600;8.034;2023-06-14T12:25:46;3.22;;;1.38;;
32876;SDS011;19226;51.600;8.034;2023-06-14T12:28:33;3.80;;;1.40;;
32876;SDS011;19226;51.600;8.034;2023-06-14T12:31:17;1.52;;;1.33;;
32876;SDS011;19226;51.600;8.034;2023-06-14T12:34:02;1.40;;;1.00;;
32876;SDS011;19226;51.600;8.034;2023-06-14T12:36:47;5.43;;;1.17;;
32876;SDS011;19226;51.600;8.034;2023-06-14T12:39:32;1.20;;;1.10;;
32876;SDS011;19226;51.600;8.034;2023-06-14T12:42:16;1.13;;;1.10;;
32876;SDS011;19226;51.600;8.034;2023-06-14T12:45:01;2.70;;;1.00;;
32876;SDS011;19226;51.600;8.034;2023-06-14T12:47:47;2.80;;;1.30;;
32876;SDS011;19226;51.600;8.034;2023-06-14T12:50:31;7.22;;;1.25;;
32876;SDS011;19226;51.600;8.034;2023-06-14T12:53:16;4.38;;;1.23;;
32876;SDS011;19226;51.600;8.034;2023-06-14T12:56:00;1.60;;;1.20;;
32876;SDS011;19226;51.600;8.034;2023-06-14T12:58:45;2.97;;;1.10;;
32876;SDS011;19226;51.600;8.034;2023-06-14T13:01:29;2.25;;;1.30;;
32876;SDS011;19226;51.600;8.034;2023-06-14T13:04:14;1.83;;;1.10;;
32876;SDS011;19226;51.600;8.034;2023-06-14T13:06:59;1.35;;;1.23;;
32876;SDS011;19226;51.600;8.034;2023-06-14T13:09:43;5.18;;;1.20;;
32876;SDS011;19226;51.600;8.034;2023-06-14T13:12:28;3.90;;;1.35;;
32876;SDS011;19226;51.600;8.034;2023-06-14T13:15:12;1.55;;;1.02;;
32876;SDS011;19226;51.600;8.034;2023-06-14T13:17:57;9.18;;;1.50;;
32876;SDS011;19226;51.600;8.034;2023-06-14T13:20:42;1.27;;;1.15;;
32876;SDS011;19226;51.600;8.034;2023-06-14T13:23:26;3.65;;;1.15;;
32876;SDS011;19226;51.600;8.034;2023-06-14T13:26:10;1.73;;;1.13;;
32876;SDS011;19226;51.600;8.034;2023-06-14T13:28:56;5.15;;;1.15;;
32876;SDS011;19226;51.600;8.034;2023-06-14T13:31:40;1.20;;;1.10;;
32876;SDS011;19226;51.600;8.034;2023-06-14T13:34:25;4.88;;;1.00;;
32876;SDS011;19226;51.600;8.034;2023-06-14T13:37:09;3.92;;;1.17;;
32876;SDS011;19226;51.600;8.034;2023-06-14T13:39:53;2.55;;;1.25;;
32876;SDS011;19226;51.600;8.034;2023-06-14T13:42:38;6.60;;;1.10;;
32876;SDS011;19226;51.600;8.034;2023-06-14T13:45:22;2.42;;;1.13;;
32876;SDS011;19226;51.600;8.034;2023-06-14T13:48:07;1.98;;;1.20;;
32876;SDS011;19226;51.600;8.034;2023-06-14T13:50:51;2.55;;;1.13;;
32876;SDS011;19226;51.600;8.034;2023-06-14T13:53:36;2.67;;;1.15;;
32876;SDS011;19226;51.600;8.034;2023-06-14T13:56:21;5.30;;;1.10;;
32876;SDS011;19226;51.600;8.034;2023-06-14T13:59:08;5.43;;;1.15;;
32876;SDS011;19226;51.600;8.034;2023-06-14T14:01:53;2.38;;;1.10;;
32876;SDS011;19226;51.600;8.034;2023-06-14T14:04:37;5.05;;;1.20;;
32876;SDS011;19226;51.600;8.034;2023-06-14T14:07:22;3.42;;;1.13;;
32876;SDS011;19226;51.600;8.034;2023-06-14T14:10:07;1.60;;;1.10;;
32876;SDS011;19226;51.600;8.034;2023-06-14T14:12:52;1.50;;;1.08;;
32876;SDS011;19226;51.600;8.034;2023-06-14T14:15:38;1.45;;;1.15;;
32876;SDS011;19226;51.600;8.034;2023-06-14T14:18:22;1.15;;;1.00;;
32876;SDS011;19226;51.600;8.034;2023-06-14T14:21:07;4.70;;;1.10;;
32876;SDS011;19226;51.600;8.034;2023-06-14T14:23:51;1.95;;;1.23;;
32876;SDS011;19226;51.600;8.034;2023-06-14T14:26:36;1.77;;;1.35;;
32876;SDS011;19226;51.600;8.034;2023-06-14T14:29:21;11.00;;;1.40;;
32876;SDS011;19226;51.600;8.034;2023-06-14T14:32:06;1.85;;;1.35;;
32876;SDS011;19226;51.600;8.034;2023-06-14T14:34:51;6.03;;;1.65;;
32876;SDS011;19226;51.600;8.034;2023-06-14T14:37:36;3.72;;;1.00;;
32876;SDS011;19226;51.600;8.034;2023-06-14T14:40:20;2.45;;;1.30;;
32876;SDS011;19226;51.600;8.034;2023-06-14T14:43:05;1.63;;;1.00;;
32876;SDS011;19226;51.600;8.034;2023-06-14T14:45:49;2.78;;;1.15;;
32876;SDS011;19226;51.600;8.034;2023-06-14T14:48:34;1.42;;;1.08;;
32876;SDS011;19226;51.600;8.034;2023-06-14T14:51:18;2.88;;;1.10;;
32876;SDS011;19226;51.600;8.034;2023-06-14T14:54:03;4.68;;;1.10;;
32876;SDS011;19226;51.600;8.034;2023-06-14T14:56:49;0.80;;;0.80;;
32876;SDS011;19226;51.600;8.034;2023-06-14T14:59:33;2.75;;;1.02;;
32876;SDS011;19226;51.600;8.034;2023-06-14T15:02:18;4.50;;;1.23;;
32876;SDS011;19226;51.600;8.034;2023-06-14T15:05:02;2.28;;;1.08;;
32876;SDS011;19226;51.600;8.034;2023-06-14T15:07:47;4.45;;;1.38;;
32876;SDS011;19226;51.600;8.034;2023-06-14T15:10:31;2.28;;;1.33;;
32876;SDS011;19226;51.600;8.034;2023-06-14T15:13:16;2.10;;;1.13;;
32876;SDS011;19226;51.600;8.034;2023-06-14T15:16:01;1.55;;;1.17;;
32876;SDS011;19226;51.600;8.034;2023-06-14T15:18:45;2.13;;;1.08;;
32876;SDS011;19226;51.600;8.034;2023-06-14T15:21:30;3.85;;;1.40;;
32876;SDS011;19226;51.600;8.034;2023-06-14T15:24:14;3.40;;;1.08;;
32876;SDS011;19226;51.600;8.034;2023-06-14T15:26:58;4.85;;;1.15;;
32876;SDS011;19226;51.600;8.034;2023-06-14T15:29:43;7.07;;;1.35;;
32876;SDS011;19226;51.600;8.034;2023-06-14T15:32:28;4.60;;;0.93;;
32876;SDS011;19226;51.600;8.034;2023-06-14T15:35:13;3.30;;;1.00;;
32876;SDS011;19226;51.600;8.034;2023-06-14T15:37:58;4.65;;;1.20;;
32876;SDS011;19226;51.600;8.034;2023-06-14T15:40:43;1.20;;;1.10;;
32876;SDS011;19226;51.600;8.034;2023-06-14T15:43:27;1.77;;;1.30;;
32876;SDS011;19226;51.600;8.034;2023-06-14T15:46:12;11.68;;;1.35;;
32876;SDS011;19226;51.600;8.034;2023-06-14T15:48:56;2.13;;;1.08;;
32876;SDS011;19226;51.600;8.034;2023-06-14T15:51:41;1.73;;;1.38;;
32876;SDS011;19226;51.600;8.034;2023-06-14T15:54:25;2.15;;;0.82;;
32876;SDS011;19226;51.600;8.034;2023-06-14T15:57:10;3.55;;;1.20;;
32876;SDS011;19226;51.600;8.034;2023-06-14T15:59:55;2.75;;;1.10;;
32876;SDS011;19226;51.600;8.034;2023-06-14T16:02:39;3.00;;;1.35;;
32876;SDS011;19226;51.600;8.034;2023-06-14T16:05:24;4.10;;;1.15;;
32876;SDS011;19226;51.600;8.034;2023-06-14T16:08:09;2.20;;;1.00;;
32876;SDS011;19226;51.600;8.034;2023-06-14T16:10:53;2.00;;;1.30;;
32876;SDS011;19226;51.600;8.034;2023-06-14T16:13:40;1.55;;;1.00;;
32876;SDS011;19226;51.600;8.034;2023-06-14T16:16:25;1.27;;;1.02;;
32876;SDS011;19226;51.600;8.034;2023-06-14T16:19:10;3.33;;;0.90;;
32876;SDS011;19226;51.600;8.034;2023-06-14T16:21:54;1.40;;;0.90;;
32876;SDS011;19226;51.600;8.034;2023-06-14T16:24:39;7.78;;;1.13;;
32876;SDS011;19226;51.600;8.034;2023-06-14T16:27:23;5.03;;;0.90;;
32876;SDS011;19226;51.600;8.034;2023-06-14T16:30:08;3.88;;;0.90;;
32876;SDS011;19226;51.600;8.034;2023-06-14T16:32:53;1.38;;;1.00;;
32876;SDS011;19226;51.600;8.034;2023-06-14T16:35:38;1.35;;;0.70;;
32876;SDS011;19226;51.600;8.034;2023-06-14T16:38:22;2.15;;;1.02;;
32876;SDS011;19226;51.600;8.034;2023-06-14T16:41:07;0.77;;;0.70;;
32876;SDS011;19226;51.600;8.034;2023-06-14T16:43:51;0.98;;;0.85;;
32876;SDS011;19226;51.600;8.034;2023-06-14T16:46:36;0.70;;;0.70;;
32876;SDS011;19226;51.600;8.034;2023-06-14T16:49:21;1.77;;;0.88;;
32876;SDS011;19226;51.600;8.034;2023-06-14T16:52:06;17.17;;;2.25;;
32876;SDS011;19226;51.600;8.034;2023-06-14T16:54:51;28.42;;;3.15;;
32876;SDS011;19226;51.600;8.034;2023-06-14T16:57:35;1.55;;;1.23;;
32876;SDS011;19226;51.600;8.034;2023-06-14T17:00:21;4.47;;;1.55;;